sensor_id;sensor_type;location;lat;lon;timestamp;temperature;humidity
26278;DHT22;14000;52.056;8.510;2023-03-16T00:00:36;-0.10;99.90
26278;DHT22;14000;52.056;8.510;2023-03-16T00:03:02;-0.10;99.90
26278;DHT22;14000;52.056;8.510;2023-03-16T00:05:28;0.00;99.90
26278;DHT22;14000;52.056;8.510;2023-03-16T00:07:53;0.00;99.90
26278;DHT22;14000;52.056;8.510;2023-03-16T00:10:19;0.10;99.90
26278;DHT22;14000;52.056;8.510;2023-03-16T00:12:52;0.20;99.90
26278;DHT22;14000;52.056;8.510;2023-03-16T00:15:18;0.20;99.90
26278;DHT22;14000;52.056;8.510;2023-03-16T00:17:44;0.20;99.90
26278;DHT22;14000;52.056;8.510;2023-03-16T00:20:16;0.30;99.90
26278;DHT22;14000;52.056;8.510;2023-03-16T00:22:43;0.30;99.90
26278;DHT22;14000;52.056;8.510;2023-03-16T00:25:11;0.30;99.90
26278;DHT22;14000;52.056;8.510;2023-03-16T00:27:37;0.30;99.90
26278;DHT22;14000;52.056;8.510;2023-03-16T00:30:03;0.30;99.90
26278;DHT22;14000;52.056;8.510;2023-03-16T00:32:31;0.20;99.90
26278;DHT22;14000;52.056;8.510;2023-03-16T00:34:58;0.20;99.90
26278;DHT22;14000;52.056;8.510;2023-03-16T00:37:25;0.20;99.90
26278;DHT22;14000;52.056;8.510;2023-03-16T00:39:52;0.20;99.90
26278;DHT22;14000;52.056;8.510;2023-03-16T00:42:21;0.20;99.90
26278;DHT22;14000;52.056;8.510;2023-03-16T00:44:57;0.20;99.90
26278;DHT22;14000;52.056;8.510;2023-03-16T00:47:25;0.20;99.90
26278;DHT22;14000;52.056;8.510;2023-03-16T00:49:51;0.20;99.90
26278;DHT22;14000;52.056;8.510;2023-03-16T00:52:16;0.10;99.90
26278;DHT22;14000;52.056;8.510;2023-03-16T00:54:44;0.20;99.90
26278;DHT22;14000;52.056;8.510;2023-03-16T00:57:15;0.20;99.90
26278;DHT22;14000;52.056;8.510;2023-03-16T00:59:43;0.20;99.90
26278;DHT22;14000;52.056;8.510;2023-03-16T01:02:10;0.20;99.90
26278;DHT22;14000;52.056;8.510;2023-03-16T01:04:37;0.20;99.90
26278;DHT22;14000;52.056;8.510;2023-03-16T01:07:05;0.20;99.90
26278;DHT22;14000;52.056;8.510;2023-03-16T01:09:31;0.20;99.90
26278;DHT22;14000;52.056;8.510;2023-03-16T01:12:02;0.20;99.90
26278;DHT22;14000;52.056;8.510;2023-03-16T01:14:31;0.10;99.90
26278;DHT22;14000;52.056;8.510;2023-03-16T01:16:57;0.10;99.90
26278;DHT22;14000;52.056;8.510;2023-03-16T01:19:22;0.10;99.90
26278;DHT22;14000;52.056;8.510;2023-03-16T01:21:48;0.10;99.90
26278;DHT22;14000;52.056;8.510;2023-03-16T01:24:13;0.20;99.90
26278;DHT22;14000;52.056;8.510;2023-03-16T01:26:39;0.20;99.90
26278;DHT22;14000;52.056;8.510;2023-03-16T01:29:05;0.20;99.90
26278;DHT22;14000;52.056;8.510;2023-03-16T01:31:30;0.10;99.90
26278;DHT22;14000;52.056;8.510;2023-03-16T01:33:56;0.10;99.90
26278;DHT22;14000;52.056;8.510;2023-03-16T01:36:22;0.20;99.90
26278;DHT22;14000;52.056;8.510;2023-03-16T01:38:48;0.20;99.90
26278;DHT22;14000;52.056;8.510;2023-03-16T01:41:14;0.10;99.90
26278;DHT22;14000;52.056;8.510;2023-03-16T01:43:41;0.00;99.90
26278;DHT22;14000;52.056;8.510;2023-03-16T01:48:36;0.00;99.90
26278;DHT22;14000;52.056;8.510;2023-03-16T01:51:07;-0.10;99.90
26278;DHT22;14000;52.056;8.510;2023-03-16T01:53:34;-0.10;99.90
26278;DHT22;14000;52.056;8.510;2023-03-16T01:56:02;-0.10;99.90
26278;DHT22;14000;52.056;8.510;2023-03-16T01:58:29;-0.10;99.90
26278;DHT22;14000;52.056;8.510;2023-03-16T02:00:56;-0.10;99.90
26278;DHT22;14000;52.056;8.510;2023-03-16T02:03:24;-0.20;99.90
26278;DHT22;14000;52.056;8.510;2023-03-16T02:06:01;-0.30;99.90
26278;DHT22;14000;52.056;8.510;2023-03-16T02:08:30;-0.30;99.90
26278;DHT22;14000;52.056;8.510;2023-03-16T02:10:57;-0.30;99.90
26278;DHT22;14000;52.056;8.510;2023-03-16T02:13:24;-0.30;99.90
26278;DHT22;14000;52.056;8.510;2023-03-16T02:15:50;-0.40;99.90
26278;DHT22;14000;52.056;8.510;2023-03-16T02:18:17;-0.40;99.90
26278;DHT22;14000;52.056;8.510;2023-03-16T02:20:51;-0.50;99.90
26278;DHT22;14000;52.056;8.510;2023-03-16T02:23:20;-0.50;99.90
26278;DHT22;14000;52.056;8.510;2023-03-16T02:28:34;-0.50;99.90
26278;DHT22;14000;52.056;8.510;2023-03-16T02:31:03;-0.60;99.90
26278;DHT22;14000;52.056;8.510;2023-03-16T02:33:31;-0.60;99.90
26278;DHT22;14000;52.056;8.510;2023-03-16T02:35:58;-0.60;99.90
26278;DHT22;14000;52.056;8.510;2023-03-16T02:38:23;-0.60;99.90
26278;DHT22;14000;52.056;8.510;2023-03-16T02:41:12;-0.70;99.90
26278;DHT22;14000;52.056;8.510;2023-03-16T02:43:42;-0.70;99.90
26278;DHT22;14000;52.056;8.510;2023-03-16T02:46:08;-0.70;99.90
26278;DHT22;14000;52.056;8.510;2023-03-16T02:48:48;-0.70;99.90
26278;DHT22;14000;52.056;8.510;2023-03-16T02:51:15;-0.70;99.90
26278;DHT22;14000;52.056;8.510;2023-03-16T02:53:41;-0.80;99.90
26278;DHT22;14000;52.056;8.510;2023-03-16T02:56:07;-0.80;99.90
26278;DHT22;14000;52.056;8.510;2023-03-16T02:58:32;-0.80;99.90
26278;DHT22;14000;52.056;8.510;2023-03-16T03:00:58;-0.80;99.90
26278;DHT22;14000;52.056;8.510;2023-03-16T03:03:24;-0.80;99.90
26278;DHT22;14000;52.056;8.510;2023-03-16T03:05:49;-0.80;99.90
26278;DHT22;14000;52.056;8.510;2023-03-16T03:08:15;-0.80;99.90
26278;DHT22;14000;52.056;8.510;2023-03-16T03:10:40;-0.80;99.90
26278;DHT22;14000;52.056;8.510;2023-03-16T03:13:06;-0.90;99.90
26278;DHT22;14000;52.056;8.510;2023-03-16T03:15:33;-0.80;99.90
26278;DHT22;14000;52.056;8.510;2023-03-16T03:17:58;-0.90;99.90
26278;DHT22;14000;52.056;8.510;2023-03-16T03:20:24;-0.90;99.90
26278;DHT22;14000;52.056;8.510;2023-03-16T03:22:50;-0.90;99.90
26278;DHT22;14000;52.056;8.510;2023-03-16T03:25:20;-0.90;99.90
26278;DHT22;14000;52.056;8.510;2023-03-16T03:27:47;-0.90;99.90
26278;DHT22;14000;52.056;8.510;2023-03-16T03:30:16;-1.00;99.90
26278;DHT22;14000;52.056;8.510;2023-03-16T03:32:41;-1.00;99.90
26278;DHT22;14000;52.056;8.510;2023-03-16T03:35:10;-1.00;99.90
26278;DHT22;14000;52.056;8.510;2023-03-16T03:37:40;-1.00;99.90
26278;DHT22;14000;52.056;8.510;2023-03-16T03:40:08;-1.00;99.90
26278;DHT22;14000;52.056;8.510;2023-03-16T03:42:34;-1.00;99.90
26278;DHT22;14000;52.056;8.510;2023-03-16T03:45:00;-1.00;99.90
26278;DHT22;14000;52.056;8.510;2023-03-16T03:47:25;-1.10;99.90
26278;DHT22;14000;52.056;8.510;2023-03-16T03:49:51;-1.10;99.90
26278;DHT22;14000;52.056;8.510;2023-03-16T03:52:17;-1.10;99.90
26278;DHT22;14000;52.056;8.510;2023-03-16T03:54:42;-1.10;99.90
26278;DHT22;14000;52.056;8.510;2023-03-16T03:57:08;-1.10;99.90
26278;DHT22;14000;52.056;8.510;2023-03-16T03:59:34;-1.10;99.90
26278;DHT22;14000;52.056;8.510;2023-03-16T04:02:05;-1.10;99.90
26278;DHT22;14000;52.056;8.510;2023-03-16T04:04:31;-1.20;99.90
26278;DHT22;14000;52.056;8.510;2023-03-16T04:06:56;-1.20;99.90
26278;DHT22;14000;52.056;8.510;2023-03-16T04:09:22;-1.10;99.90
26278;DHT22;14000;52.056;8.510;2023-03-16T04:11:48;-1.10;99.90
26278;DHT22;14000;52.056;8.510;2023-03-16T04:14:13;-1.10;99.90
26278;DHT22;14000;52.056;8.510;2023-03-16T04:16:39;-1.10;99.90
26278;DHT22;14000;52.056;8.510;2023-03-16T04:19:05;-1.10;99.90
26278;DHT22;14000;52.056;8.510;2023-03-16T04:21:30;-1.00;99.90
26278;DHT22;14000;52.056;8.510;2023-03-16T04:23:56;-1.00;99.90
26278;DHT22;14000;52.056;8.510;2023-03-16T04:26:22;-0.90;99.90
26278;DHT22;14000;52.056;8.510;2023-03-16T04:28:49;-0.90;99.90
26278;DHT22;14000;52.056;8.510;2023-03-16T04:31:17;-0.80;99.90
26278;DHT22;14000;52.056;8.510;2023-03-16T04:33:42;-0.60;99.90
26278;DHT22;14000;52.056;8.510;2023-03-16T04:36:08;-0.50;99.90
26278;DHT22;14000;52.056;8.510;2023-03-16T04:38:34;-0.40;99.90
26278;DHT22;14000;52.056;8.510;2023-03-16T04:41:04;-0.30;99.90
26278;DHT22;14000;52.056;8.510;2023-03-16T04:43:31;0.00;99.90
26278;DHT22;14000;52.056;8.510;2023-03-16T04:45:59;0.10;99.90
26278;DHT22;14000;52.056;8.510;2023-03-16T04:48:27;0.30;99.90
26278;DHT22;14000;52.056;8.510;2023-03-16T04:50:53;0.50;99.90
26278;DHT22;14000;52.056;8.510;2023-03-16T04:53:18;0.50;99.90
26278;DHT22;14000;52.056;8.510;2023-03-16T04:55:45;0.70;99.90
26278;DHT22;14000;52.056;8.510;2023-03-16T04:58:10;0.80;99.90
26278;DHT22;14000;52.056;8.510;2023-03-16T05:00:38;0.80;99.90
26278;DHT22;14000;52.056;8.510;2023-03-16T05:03:05;1.00;99.90
26278;DHT22;14000;52.056;8.510;2023-03-16T05:05:30;1.00;99.90
26278;DHT22;14000;52.056;8.510;2023-03-16T05:07:56;1.00;99.90
26278;DHT22;14000;52.056;8.510;2023-03-16T05:10:22;1.10;99.90
26278;DHT22;14000;52.056;8.510;2023-03-16T05:12:47;1.10;99.90
26278;DHT22;14000;52.056;8.510;2023-03-16T05:15:13;1.20;99.90
26278;DHT22;14000;52.056;8.510;2023-03-16T05:17:40;1.20;99.90
26278;DHT22;14000;52.056;8.510;2023-03-16T05:20:11;1.20;99.90
26278;DHT22;14000;52.056;8.510;2023-03-16T05:22:42;1.30;99.90
26278;DHT22;14000;52.056;8.510;2023-03-16T05:25:08;1.40;99.90
26278;DHT22;14000;52.056;8.510;2023-03-16T05:27:40;1.50;99.90
26278;DHT22;14000;52.056;8.510;2023-03-16T05:30:07;1.50;99.90
26278;DHT22;14000;52.056;8.510;2023-03-16T05:32:33;1.50;99.90
26278;DHT22;14000;52.056;8.510;2023-03-16T05:34:58;1.60;99.90
26278;DHT22;14000;52.056;8.510;2023-03-16T05:37:24;1.70;99.90
26278;DHT22;14000;52.056;8.510;2023-03-16T05:39:49;1.70;99.90
26278;DHT22;14000;52.056;8.510;2023-03-16T05:42:15;1.70;99.90
26278;DHT22;14000;52.056;8.510;2023-03-16T05:44:41;1.70;99.90
26278;DHT22;14000;52.056;8.510;2023-03-16T05:47:06;1.70;99.90
26278;DHT22;14000;52.056;8.510;2023-03-16T05:49:32;1.80;99.90
26278;DHT22;14000;52.056;8.510;2023-03-16T05:51:57;1.80;99.90
26278;DHT22;14000;52.056;8.510;2023-03-16T05:54:23;1.80;99.90
26278;DHT22;14000;52.056;8.510;2023-03-16T05:56:49;1.90;99.90
26278;DHT22;14000;52.056;8.510;2023-03-16T05:59:14;2.00;99.90
26278;DHT22;14000;52.056;8.510;2023-03-16T06:01:42;2.00;99.90
26278;DHT22;14000;52.056;8.510;2023-03-16T06:04:07;2.00;99.90
26278;DHT22;14000;52.056;8.510;2023-03-16T06:06:33;2.10;99.90
26278;DHT22;14000;52.056;8.510;2023-03-16T06:08:58;2.10;99.90
26278;DHT22;14000;52.056;8.510;2023-03-16T06:11:25;2.20;99.90
26278;DHT22;14000;52.056;8.510;2023-03-16T06:13:51;2.20;99.90
26278;DHT22;14000;52.056;8.510;2023-03-16T06:16:16;2.30;99.90
26278;DHT22;14000;52.056;8.510;2023-03-16T06:18:42;2.30;99.90
26278;DHT22;14000;52.056;8.510;2023-03-16T06:21:08;2.30;99.90
26278;DHT22;14000;52.056;8.510;2023-03-16T06:23:33;2.40;99.90
26278;DHT22;14000;52.056;8.510;2023-03-16T06:25:59;2.40;99.90
26278;DHT22;14000;52.056;8.510;2023-03-16T06:28:25;2.50;99.90
26278;DHT22;14000;52.056;8.510;2023-03-16T06:30:55;2.50;99.90
26278;DHT22;14000;52.056;8.510;2023-03-16T06:33:21;2.50;99.90
26278;DHT22;14000;52.056;8.510;2023-03-16T06:35:48;2.50;99.90
26278;DHT22;14000;52.056;8.510;2023-03-16T06:38:14;2.50;99.90
26278;DHT22;14000;52.056;8.510;2023-03-16T06:40:40;2.60;99.90
26278;DHT22;14000;52.056;8.510;2023-03-16T06:43:06;2.60;99.90
26278;DHT22;14000;52.056;8.510;2023-03-16T06:45:32;2.70;99.90
26278;DHT22;14000;52.056;8.510;2023-03-16T06:47:57;2.70;99.90
26278;DHT22;14000;52.056;8.510;2023-03-16T06:50:23;2.70;99.90
26278;DHT22;14000;52.056;8.510;2023-03-16T06:52:49;2.80;99.90
26278;DHT22;14000;52.056;8.510;2023-03-16T06:55:14;2.80;99.90
26278;DHT22;14000;52.056;8.510;2023-03-16T06:57:40;2.90;99.90
26278;DHT22;14000;52.056;8.510;2023-03-16T07:00:11;3.00;99.90
26278;DHT22;14000;52.056;8.510;2023-03-16T07:02:38;3.00;99.90
26278;DHT22;14000;52.056;8.510;2023-03-16T07:05:06;3.10;99.90
26278;DHT22;14000;52.056;8.510;2023-03-16T07:07:32;3.10;99.90
26278;DHT22;14000;52.056;8.510;2023-03-16T07:09:58;3.20;99.90
26278;DHT22;14000;52.056;8.510;2023-03-16T07:12:23;3.20;99.90
26278;DHT22;14000;52.056;8.510;2023-03-16T07:14:49;3.30;99.90
26278;DHT22;14000;52.056;8.510;2023-03-16T07:17:15;3.40;99.90
26278;DHT22;14000;52.056;8.510;2023-03-16T07:19:41;3.40;99.90
26278;DHT22;14000;52.056;8.510;2023-03-16T07:22:08;3.50;99.90
26278;DHT22;14000;52.056;8.510;2023-03-16T07:24:33;3.60;99.90
26278;DHT22;14000;52.056;8.510;2023-03-16T07:26:59;3.60;99.90
26278;DHT22;14000;52.056;8.510;2023-03-16T07:29:26;3.70;99.90
26278;DHT22;14000;52.056;8.510;2023-03-16T07:31:52;3.80;99.90
26278;DHT22;14000;52.056;8.510;2023-03-16T07:34:18;3.90;99.90
26278;DHT22;14000;52.056;8.510;2023-03-16T07:36:44;4.00;99.90
26278;DHT22;14000;52.056;8.510;2023-03-16T07:39:09;4.10;99.90
26278;DHT22;14000;52.056;8.510;2023-03-16T07:41:38;4.10;99.90
26278;DHT22;14000;52.056;8.510;2023-03-16T07:44:04;4.10;99.90
26278;DHT22;14000;52.056;8.510;2023-03-16T07:46:30;4.20;99.90
26278;DHT22;14000;52.056;8.510;2023-03-16T07:48:57;4.20;99.90
26278;DHT22;14000;52.056;8.510;2023-03-16T07:51:23;4.20;99.90
26278;DHT22;14000;52.056;8.510;2023-03-16T07:53:48;4.30;99.90
26278;DHT22;14000;52.056;8.510;2023-03-16T07:56:14;4.30;99.90
26278;DHT22;14000;52.056;8.510;2023-03-16T07:58:40;4.40;99.90
26278;DHT22;14000;52.056;8.510;2023-03-16T08:01:06;4.40;99.90
26278;DHT22;14000;52.056;8.510;2023-03-16T08:03:32;4.50;99.90
26278;DHT22;14000;52.056;8.510;2023-03-16T08:05:58;4.50;99.90
26278;DHT22;14000;52.056;8.510;2023-03-16T08:08:23;4.60;99.90
26278;DHT22;14000;52.056;8.510;2023-03-16T08:10:49;4.70;99.90
26278;DHT22;14000;52.056;8.510;2023-03-16T08:13:17;4.80;99.90
26278;DHT22;14000;52.056;8.510;2023-03-16T08:15:50;4.90;99.90
26278;DHT22;14000;52.056;8.510;2023-03-16T08:18:27;5.00;99.90
26278;DHT22;14000;52.056;8.510;2023-03-16T08:20:54;5.10;99.90
26278;DHT22;14000;52.056;8.510;2023-03-16T08:23:20;5.10;99.90
26278;DHT22;14000;52.056;8.510;2023-03-16T08:25:50;5.20;99.90
26278;DHT22;14000;52.056;8.510;2023-03-16T08:28:15;5.20;99.90
26278;DHT22;14000;52.056;8.510;2023-03-16T08:30:46;5.30;99.90
26278;DHT22;14000;52.056;8.510;2023-03-16T08:33:12;5.30;99.90
26278;DHT22;14000;52.056;8.510;2023-03-16T08:35:41;5.30;99.90
26278;DHT22;14000;52.056;8.510;2023-03-16T08:38:09;5.40;99.90
26278;DHT22;14000;52.056;8.510;2023-03-16T08:40:35;5.40;99.90
26278;DHT22;14000;52.056;8.510;2023-03-16T08:43:00;5.50;99.90
26278;DHT22;14000;52.056;8.510;2023-03-16T08:45:26;5.50;99.90
26278;DHT22;14000;52.056;8.510;2023-03-16T08:47:52;5.70;99.90
26278;DHT22;14000;52.056;8.510;2023-03-16T08:50:18;5.70;99.90
26278;DHT22;14000;52.056;8.510;2023-03-16T08:52:45;5.90;99.90
26278;DHT22;14000;52.056;8.510;2023-03-16T08:55:13;5.90;99.90
26278;DHT22;14000;52.056;8.510;2023-03-16T08:57:40;6.00;99.90
26278;DHT22;14000;52.056;8.510;2023-03-16T09:00:06;6.10;99.90
26278;DHT22;14000;52.056;8.510;2023-03-16T09:02:41;6.10;99.90
26278;DHT22;14000;52.056;8.510;2023-03-16T09:05:12;6.20;99.90
26278;DHT22;14000;52.056;8.510;2023-03-16T09:07:39;6.20;99.90
26278;DHT22;14000;52.056;8.510;2023-03-16T09:10:06;6.30;99.90
26278;DHT22;14000;52.056;8.510;2023-03-16T09:12:35;6.30;99.90
26278;DHT22;14000;52.056;8.510;2023-03-16T09:15:01;6.20;99.90
26278;DHT22;14000;52.056;8.510;2023-03-16T09:17:26;6.30;99.90
26278;DHT22;14000;52.056;8.510;2023-03-16T09:19:53;6.30;99.90
26278;DHT22;14000;52.056;8.510;2023-03-16T09:22:19;6.40;99.90
26278;DHT22;14000;52.056;8.510;2023-03-16T09:24:46;6.50;99.90
26278;DHT22;14000;52.056;8.510;2023-03-16T09:27:13;6.40;99.90
26278;DHT22;14000;52.056;8.510;2023-03-16T09:29:40;6.50;99.90
26278;DHT22;14000;52.056;8.510;2023-03-16T09:32:07;6.60;99.90
26278;DHT22;14000;52.056;8.510;2023-03-16T09:34:33;6.70;99.90
26278;DHT22;14000;52.056;8.510;2023-03-16T09:36:58;6.80;99.90
26278;DHT22;14000;52.056;8.510;2023-03-16T09:39:24;6.90;99.90
26278;DHT22;14000;52.056;8.510;2023-03-16T09:42:01;7.00;99.90
26278;DHT22;14000;52.056;8.510;2023-03-16T09:47:13;7.10;99.90
26278;DHT22;14000;52.056;8.510;2023-03-16T09:49:48;7.30;99.90
26278;DHT22;14000;52.056;8.510;2023-03-16T09:52:42;7.50;99.90
26278;DHT22;14000;52.056;8.510;2023-03-16T09:55:29;7.60;99.90
26278;DHT22;14000;52.056;8.510;2023-03-16T09:57:57;7.70;99.90
26278;DHT22;14000;52.056;8.510;2023-03-16T10:00:26;7.80;99.90
26278;DHT22;14000;52.056;8.510;2023-03-16T10:03:08;7.80;99.90
26278;DHT22;14000;52.056;8.510;2023-03-16T10:05:38;7.80;99.90
26278;DHT22;14000;52.056;8.510;2023-03-16T10:08:24;8.00;99.90
26278;DHT22;14000;52.056;8.510;2023-03-16T10:11:15;8.00;99.90
26278;DHT22;14000;52.056;8.510;2023-03-16T10:16:37;8.10;99.90
26278;DHT22;14000;52.056;8.510;2023-03-16T10:19:33;8.20;99.90
26278;DHT22;14000;52.056;8.510;2023-03-16T10:22:14;8.20;99.90
26278;DHT22;14000;52.056;8.510;2023-03-16T10:25:19;8.10;99.90
26278;DHT22;14000;52.056;8.510;2023-03-16T10:27:46;8.20;99.90
26278;DHT22;14000;52.056;8.510;2023-03-16T10:32:49;8.40;99.90
26278;DHT22;14000;52.056;8.510;2023-03-16T10:35:33;8.60;99.90
26278;DHT22;14000;52.056;8.510;2023-03-16T10:38:02;8.60;99.90
26278;DHT22;14000;52.056;8.510;2023-03-16T10:40:31;8.70;99.90
26278;DHT22;14000;52.056;8.510;2023-03-16T10:43:05;8.80;99.90
26278;DHT22;14000;52.056;8.510;2023-03-16T10:45:33;8.90;99.90
26278;DHT22;14000;52.056;8.510;2023-03-16T10:48:14;9.00;99.90
26278;DHT22;14000;52.056;8.510;2023-03-16T10:50:42;8.90;99.90
26278;DHT22;14000;52.056;8.510;2023-03-16T10:53:21;9.00;99.90
26278;DHT22;14000;52.056;8.510;2023-03-16T10:55:48;9.10;99.90
26278;DHT22;14000;52.056;8.510;2023-03-16T10:58:25;9.20;99.90
26278;DHT22;14000;52.056;8.510;2023-03-16T11:00:53;9.30;99.90
26278;DHT22;14000;52.056;8.510;2023-03-16T11:03:30;9.30;99.90
26278;DHT22;14000;52.056;8.510;2023-03-16T11:06:14;9.30;99.90
26278;DHT22;14000;52.056;8.510;2023-03-16T11:08:41;9.30;99.90
26278;DHT22;14000;52.056;8.510;2023-03-16T11:11:18;9.40;99.90
26278;DHT22;14000;52.056;8.510;2023-03-16T11:13:46;9.50;99.90
26278;DHT22;14000;52.056;8.510;2023-03-16T11:16:41;9.50;99.90
26278;DHT22;14000;52.056;8.510;2023-03-16T11:19:18;9.40;99.90
26278;DHT22;14000;52.056;8.510;2023-03-16T11:21:46;9.30;99.90
26278;DHT22;14000;52.056;8.510;2023-03-16T11:24:26;9.40;99.90
26278;DHT22;14000;52.056;8.510;2023-03-16T11:26:56;9.40;99.90
26278;DHT22;14000;52.056;8.510;2023-03-16T11:32:36;9.30;99.90
26278;DHT22;14000;52.056;8.510;2023-03-16T11:35:11;9.30;99.90
26278;DHT22;14000;52.056;8.510;2023-03-16T11:45:35;9.50;99.90
26278;DHT22;14000;52.056;8.510;2023-03-16T11:48:38;9.30;99.90
26278;DHT22;14000;52.056;8.510;2023-03-16T11:51:34;9.30;99.90
26278;DHT22;14000;52.056;8.510;2023-03-16T11:54:15;9.30;99.90
26278;DHT22;14000;52.056;8.510;2023-03-16T12:18:37;9.10;99.90
26278;DHT22;14000;52.056;8.510;2023-03-16T12:21:10;9.10;99.90
26278;DHT22;14000;52.056;8.510;2023-03-16T12:24:04;9.10;99.90
26278;DHT22;14000;52.056;8.510;2023-03-16T12:26:39;9.20;99.90
26278;DHT22;14000;52.056;8.510;2023-03-16T12:29:33;9.30;99.90
26278;DHT22;14000;52.056;8.510;2023-03-16T12:32:43;9.40;99.90
26278;DHT22;14000;52.056;8.510;2023-03-16T12:40:44;9.50;99.90
26278;DHT22;14000;52.056;8.510;2023-03-16T12:46:06;9.70;99.90
26278;DHT22;14000;52.056;8.510;2023-03-16T12:51:03;10.10;99.90
26278;DHT22;14000;52.056;8.510;2023-03-16T12:56:47;10.30;99.90
26278;DHT22;14000;52.056;8.510;2023-03-16T12:59:18;10.40;99.90
26278;DHT22;14000;52.056;8.510;2023-03-16T13:01:57;10.50;99.90
26278;DHT22;14000;52.056;8.510;2023-03-16T13:04:32;10.40;99.90
26278;DHT22;14000;52.056;8.510;2023-03-16T13:07:20;10.20;99.90
26278;DHT22;14000;52.056;8.510;2023-03-16T13:09:51;9.90;99.90
26278;DHT22;14000;52.056;8.510;2023-03-16T13:12:23;9.80;99.90
26278;DHT22;14000;52.056;8.510;2023-03-16T13:14:50;9.80;99.90
26278;DHT22;14000;52.056;8.510;2023-03-16T13:24:53;9.80;99.90
26278;DHT22;14000;52.056;8.510;2023-03-16T13:27:31;9.70;99.90
26278;DHT22;14000;52.056;8.510;2023-03-16T13:30:00;9.60;99.90
26278;DHT22;14000;52.056;8.510;2023-03-16T13:32:30;9.80;99.90
26278;DHT22;14000;52.056;8.510;2023-03-16T13:35:01;9.70;99.90
26278;DHT22;14000;52.056;8.510;2023-03-16T13:37:30;9.70;99.90
26278;DHT22;14000;52.056;8.510;2023-03-16T13:40:00;9.80;99.90
26278;DHT22;14000;52.056;8.510;2023-03-16T13:42:29;9.70;99.90
26278;DHT22;14000;52.056;8.510;2023-03-16T13:44:57;9.80;99.90
26278;DHT22;14000;52.056;8.510;2023-03-16T13:47:25;9.90;99.90
26278;DHT22;14000;52.056;8.510;2023-03-16T13:49:58;10.00;99.90
26278;DHT22;14000;52.056;8.510;2023-03-16T13:54:50;10.30;99.90
26278;DHT22;14000;52.056;8.510;2023-03-16T13:57:20;10.30;99.90
26278;DHT22;14000;52.056;8.510;2023-03-16T13:59:46;10.30;99.90
26278;DHT22;14000;52.056;8.510;2023-03-16T14:02:19;10.40;99.90
26278;DHT22;14000;52.056;8.510;2023-03-16T14:04:46;10.40;99.90
26278;DHT22;14000;52.056;8.510;2023-03-16T14:07:18;10.40;99.90
26278;DHT22;14000;52.056;8.510;2023-03-16T14:09:44;10.50;99.90
26278;DHT22;14000;52.056;8.510;2023-03-16T14:12:16;10.50;99.90
26278;DHT22;14000;52.056;8.510;2023-03-16T14:14:46;10.50;99.90
26278;DHT22;14000;52.056;8.510;2023-03-16T14:17:17;10.40;99.90
26278;DHT22;14000;52.056;8.510;2023-03-16T14:19:47;10.20;99.90
26278;DHT22;14000;52.056;8.510;2023-03-16T14:22:22;10.20;99.90
26278;DHT22;14000;52.056;8.510;2023-03-16T14:24:53;10.10;99.90
26278;DHT22;14000;52.056;8.510;2023-03-16T14:30:19;9.90;99.90
26278;DHT22;14000;52.056;8.510;2023-03-16T14:35:59;9.90;99.90
26278;DHT22;14000;52.056;8.510;2023-03-16T14:38:30;9.90;99.90
26278;DHT22;14000;52.056;8.510;2023-03-16T14:41:02;9.90;99.90
26278;DHT22;14000;52.056;8.510;2023-03-16T14:43:31;9.90;99.90
26278;DHT22;14000;52.056;8.510;2023-03-16T14:45:59;9.80;99.90
26278;DHT22;14000;52.056;8.510;2023-03-16T14:48:25;9.80;99.90
26278;DHT22;14000;52.056;8.510;2023-03-16T14:50:55;9.70;99.90
26278;DHT22;14000;52.056;8.510;2023-03-16T14:53:22;9.70;99.90
26278;DHT22;14000;52.056;8.510;2023-03-16T14:55:49;9.80;99.90
26278;DHT22;14000;52.056;8.510;2023-03-16T14:58:14;9.90;99.90
26278;DHT22;14000;52.056;8.510;2023-03-16T15:00:41;9.80;99.90
26278;DHT22;14000;52.056;8.510;2023-03-16T15:03:12;9.80;99.90
26278;DHT22;14000;52.056;8.510;2023-03-16T15:05:41;9.80;99.90
26278;DHT22;14000;52.056;8.510;2023-03-16T15:08:15;9.80;99.90
26278;DHT22;14000;52.056;8.510;2023-03-16T15:10:42;10.10;99.90
26278;DHT22;14000;52.056;8.510;2023-03-16T15:13:17;10.30;99.90
26278;DHT22;14000;52.056;8.510;2023-03-16T15:16:03;10.40;99.90
26278;DHT22;14000;52.056;8.510;2023-03-16T15:18:30;10.40;99.90
26278;DHT22;14000;52.056;8.510;2023-03-16T15:20:57;10.40;99.90
26278;DHT22;14000;52.056;8.510;2023-03-16T15:23:23;10.30;99.90
26278;DHT22;14000;52.056;8.510;2023-03-16T15:25:49;10.20;99.90
26278;DHT22;14000;52.056;8.510;2023-03-16T15:28:22;10.10;99.90
26278;DHT22;14000;52.056;8.510;2023-03-16T15:30:50;9.90;99.90
26278;DHT22;14000;52.056;8.510;2023-03-16T15:33:17;9.80;99.90
26278;DHT22;14000;52.056;8.510;2023-03-16T15:35:44;9.90;99.90
26278;DHT22;14000;52.056;8.510;2023-03-16T15:38:31;9.90;99.90
26278;DHT22;14000;52.056;8.510;2023-03-16T15:40:58;9.90;99.90
26278;DHT22;14000;52.056;8.510;2023-03-16T15:43:26;10.00;99.90
26278;DHT22;14000;52.056;8.510;2023-03-16T15:45:55;10.10;99.90
26278;DHT22;14000;52.056;8.510;2023-03-16T15:48:21;10.10;99.90
26278;DHT22;14000;52.056;8.510;2023-03-16T15:51:03;10.20;99.90
26278;DHT22;14000;52.056;8.510;2023-03-16T15:53:34;10.20;99.90
26278;DHT22;14000;52.056;8.510;2023-03-16T15:56:03;10.30;99.90
26278;DHT22;14000;52.056;8.510;2023-03-16T15:58:31;10.20;99.90
26278;DHT22;14000;52.056;8.510;2023-03-16T16:00:59;10.10;99.90
26278;DHT22;14000;52.056;8.510;2023-03-16T16:03:26;10.20;99.90
26278;DHT22;14000;52.056;8.510;2023-03-16T16:05:52;10.10;99.90
26278;DHT22;14000;52.056;8.510;2023-03-16T16:08:18;10.00;99.90
26278;DHT22;14000;52.056;8.510;2023-03-16T16:10:46;10.00;99.90
26278;DHT22;14000;52.056;8.510;2023-03-16T16:13:24;10.00;99.90
26278;DHT22;14000;52.056;8.510;2023-03-16T16:15:52;10.10;99.90
26278;DHT22;14000;52.056;8.510;2023-03-16T16:18:31;10.10;99.90
26278;DHT22;14000;52.056;8.510;2023-03-16T16:21:00;10.10;99.90
26278;DHT22;14000;52.056;8.510;2023-03-16T16:23:26;10.10;99.90
26278;DHT22;14000;52.056;8.510;2023-03-16T16:25:57;10.10;99.90
26278;DHT22;14000;52.056;8.510;2023-03-16T16:28:27;10.10;99.90
26278;DHT22;14000;52.056;8.510;2023-03-16T16:30:53;10.10;99.90
26278;DHT22;14000;52.056;8.510;2023-03-16T16:33:30;10.00;99.90
26278;DHT22;14000;52.056;8.510;2023-03-16T16:35:58;9.80;99.90
26278;DHT22;14000;52.056;8.510;2023-03-16T16:38:25;9.70;99.90
26278;DHT22;14000;52.056;8.510;2023-03-16T16:40:52;9.60;99.90
26278;DHT22;14000;52.056;8.510;2023-03-16T16:45:50;9.50;99.90
26278;DHT22;14000;52.056;8.510;2023-03-16T16:48:41;9.50;99.90
26278;DHT22;14000;52.056;8.510;2023-03-16T16:51:22;9.50;99.90
26278;DHT22;14000;52.056;8.510;2023-03-16T16:53:50;9.40;99.90
26278;DHT22;14000;52.056;8.510;2023-03-16T16:56:17;9.40;99.90
26278;DHT22;14000;52.056;8.510;2023-03-16T16:58:45;9.40;99.90
26278;DHT22;14000;52.056;8.510;2023-03-16T17:01:31;9.30;99.90
26278;DHT22;14000;52.056;8.510;2023-03-16T17:04:02;9.20;99.90
26278;DHT22;14000;52.056;8.510;2023-03-16T17:06:28;9.20;99.90
26278;DHT22;14000;52.056;8.510;2023-03-16T17:08:53;9.10;99.90
26278;DHT22;14000;52.056;8.510;2023-03-16T17:11:28;9.10;99.90
26278;DHT22;14000;52.056;8.510;2023-03-16T17:13:57;9.00;99.90